createdAt,value
2018-08-16T00:01:36.170Z,0.80
2018-08-16T00:04:04.626Z,0.90
2018-08-16T00:06:33.029Z,0.80
2018-08-16T00:09:01.466Z,0.70
2018-08-16T00:11:29.885Z,1.00
2018-08-16T00:13:58.330Z,1.00
2018-08-16T00:16:26.800Z,0.70
2018-08-16T00:18:55.409Z,0.90
2018-08-16T00:21:23.807Z,0.90
2018-08-16T00:23:52.461Z,1.03
2018-08-16T00:26:20.928Z,0.70
2018-08-16T00:28:49.383Z,0.83
2018-08-16T00:31:17.841Z,0.73
2018-08-16T00:33:46.380Z,0.80
2018-08-16T00:36:14.804Z,0.77
2018-08-16T00:38:43.325Z,0.80
2018-08-16T00:41:11.761Z,0.80
2018-08-16T00:43:40.417Z,0.97
2018-08-16T00:46:08.855Z,0.87
2018-08-16T00:48:37.351Z,0.80
2018-08-16T00:51:05.782Z,0.83
2018-08-16T00:53:34.285Z,0.87
2018-08-16T00:56:02.821Z,0.90
2018-08-16T00:58:31.465Z,0.80
2018-08-16T01:00:59.905Z,0.93
2018-08-16T01:03:28.714Z,0.90
2018-08-16T01:05:57.465Z,0.90
2018-08-16T01:08:25.863Z,0.73
2018-08-16T01:10:54.281Z,0.90
2018-08-16T01:13:22.738Z,0.73
2018-08-16T01:15:51.284Z,0.90
2018-08-16T01:18:19.873Z,1.10
2018-08-16T01:20:48.463Z,0.80
2018-08-16T01:23:17.001Z,0.80
2018-08-16T01:25:45.542Z,0.80
2018-08-16T01:28:14.032Z,0.90
2018-08-16T01:30:42.589Z,0.80
2018-08-16T01:33:10.997Z,0.80
2018-08-16T01:35:40.711Z,0.90
2018-08-16T01:38:09.109Z,1.00
2018-08-16T01:40:37.778Z,0.90
2018-08-16T01:43:06.246Z,0.80
2018-08-16T01:45:34.659Z,0.70
2018-08-16T01:48:03.064Z,0.80
2018-08-16T01:50:31.488Z,0.80
2018-08-16T01:52:59.933Z,0.90
2018-08-16T01:55:28.717Z,0.93
2018-08-16T01:57:58.043Z,1.00
2018-08-16T02:00:26.482Z,1.03
2018-08-16T02:02:55.133Z,0.80
2018-08-16T02:05:23.719Z,1.10
2018-08-16T02:07:52.103Z,1.00
2018-08-16T02:10:20.530Z,1.00
2018-08-16T02:12:49.082Z,1.00
2018-08-16T02:15:17.465Z,1.00
2018-08-16T02:17:45.908Z,0.80
2018-08-16T02:20:15.336Z,1.10
2018-08-16T02:22:44.616Z,0.90
2018-08-16T02:25:13.003Z,0.97
2018-08-16T02:27:41.548Z,1.10
2018-08-16T02:30:10.743Z,1.00
2018-08-16T02:32:39.905Z,0.77
2018-08-16T02:35:08.678Z,0.97
2018-08-16T02:37:37.243Z,0.93
2018-08-16T02:40:07.230Z,1.20
2018-08-16T02:42:35.621Z,1.00
2018-08-16T02:45:04.034Z,0.80
2018-08-16T02:47:32.667Z,0.90
2018-08-16T02:50:01.153Z,1.30
2018-08-16T02:52:29.590Z,1.20
2018-08-16T02:54:59.023Z,0.77
2018-08-16T02:57:27.517Z,1.10
2018-08-16T02:59:55.958Z,1.10
2018-08-16T03:02:24.521Z,1.00
2018-08-16T03:04:52.982Z,0.93
2018-08-16T03:07:21.393Z,1.00
2018-08-16T03:09:49.953Z,0.90
2018-08-16T03:12:18.338Z,0.90
2018-08-16T03:14:46.752Z,1.00
2018-08-16T03:17:15.273Z,1.03
2018-08-16T03:19:43.720Z,1.10
2018-08-16T03:22:12.197Z,1.00
2018-08-16T03:24:40.938Z,1.00
2018-08-16T03:27:09.370Z,1.20
2018-08-16T03:29:38.013Z,0.87
2018-08-16T03:32:06.407Z,1.20
2018-08-16T03:34:34.906Z,1.00
2018-08-16T03:37:03.422Z,0.83
2018-08-16T03:39:31.869Z,1.23
2018-08-16T03:42:00.274Z,0.90
2018-08-16T03:44:28.810Z,1.10
2018-08-16T03:46:57.258Z,1.10
2018-08-16T03:49:25.677Z,1.20
2018-08-16T03:51:54.161Z,1.00
2018-08-16T03:54:22.633Z,1.00
2018-08-16T03:56:51.083Z,1.00
2018-08-16T03:59:19.743Z,1.40
2018-08-16T04:01:48.161Z,0.90
2018-08-16T04:04:16.635Z,1.03
2018-08-16T04:06:45.032Z,1.10
2018-08-16T04:09:13.500Z,0.90
2018-08-16T04:11:41.954Z,1.17
2018-08-16T04:14:10.477Z,1.17
2018-08-16T04:16:40.436Z,1.00
2018-08-16T04:19:09.192Z,1.10
2018-08-16T04:21:37.761Z,1.03
2018-08-16T04:24:06.345Z,1.03
2018-08-16T04:26:34.993Z,0.90
2018-08-16T04:29:03.566Z,1.03
2018-08-16T04:31:32.382Z,1.30
2018-08-16T04:34:00.813Z,1.27
2018-08-16T04:36:32.884Z,1.17
2018-08-16T04:39:02.480Z,1.00
2018-08-16T04:41:30.894Z,0.90
2018-08-16T04:43:59.455Z,0.97
2018-08-16T04:46:29.993Z,1.00
2018-08-16T04:48:59.063Z,1.10
2018-08-16T04:51:27.564Z,1.00
2018-08-16T04:53:56.127Z,1.30
2018-08-16T04:56:25.520Z,1.13
2018-08-16T04:58:54.225Z,0.97
2018-08-16T05:01:22.826Z,1.20
2018-08-16T05:03:51.483Z,1.10
2018-08-16T05:06:19.950Z,1.30
2018-08-16T05:08:48.378Z,1.03
2018-08-16T05:11:16.852Z,1.07
2018-08-16T05:13:45.351Z,1.20
2018-08-16T05:16:13.849Z,1.30
2018-08-16T05:18:42.265Z,1.20
2018-08-16T05:21:10.780Z,1.30
2018-08-16T05:23:39.593Z,1.30
2018-08-16T05:26:08.038Z,1.33
2018-08-16T05:28:36.669Z,1.30
2018-08-16T05:31:05.165Z,1.00
2018-08-16T05:33:33.668Z,1.23
2018-08-16T05:36:02.124Z,1.20
2018-08-16T05:38:30.696Z,0.97
2018-08-16T05:40:59.195Z,1.40
2018-08-16T05:43:28.289Z,1.10
2018-08-16T05:45:56.669Z,1.20
2018-08-16T05:48:25.443Z,1.20
2018-08-16T05:50:53.943Z,1.40
2018-08-16T05:53:22.380Z,1.10
2018-08-16T05:55:50.912Z,1.33
2018-08-16T05:58:19.389Z,1.20
2018-08-16T06:00:47.972Z,1.10
2018-08-16T06:03:16.497Z,1.00
2018-08-16T06:05:44.982Z,1.10
2018-08-16T06:08:13.542Z,1.30
2018-08-16T06:10:42.113Z,1.20
2018-08-16T06:13:10.622Z,1.13
2018-08-16T06:15:39.905Z,1.20
2018-08-16T06:18:08.566Z,1.30
2018-08-16T06:20:37.084Z,1.20
2018-08-16T06:23:05.690Z,1.10
2018-08-16T06:25:34.329Z,1.10
2018-08-16T06:28:03.230Z,1.10
2018-08-16T06:30:32.010Z,0.97
2018-08-16T06:33:00.577Z,1.20
2018-08-16T06:35:29.058Z,1.20
2018-08-16T06:37:57.569Z,1.23
2018-08-16T06:40:26.153Z,1.40
2018-08-16T06:42:54.662Z,1.40
2018-08-16T06:45:23.145Z,1.33
2018-08-16T06:47:51.589Z,1.30
2018-08-16T06:50:20.120Z,1.10
2018-08-16T06:52:48.638Z,1.30
2018-08-16T06:55:17.214Z,1.10
2018-08-16T06:57:45.701Z,1.20
2018-08-16T07:00:14.217Z,1.13
2018-08-16T07:02:42.734Z,1.40
2018-08-16T07:05:11.207Z,1.23
2018-08-16T07:07:39.816Z,1.40
2018-08-16T07:10:09.946Z,1.00
2018-08-16T07:12:38.779Z,0.97
2018-08-16T07:15:12.024Z,1.07
2018-08-16T07:17:40.791Z,1.17
2018-08-16T07:20:09.401Z,1.17
2018-08-16T07:22:38.048Z,1.20
2018-08-16T07:25:07.342Z,1.20
2018-08-16T07:27:35.872Z,1.20
2018-08-16T07:30:05.517Z,1.20
2018-08-16T07:32:34.025Z,1.33
2018-08-16T07:35:02.917Z,1.20
2018-08-16T07:37:31.341Z,1.30
2018-08-16T07:39:59.793Z,1.10
2018-08-16T07:42:28.282Z,1.00
2018-08-16T07:44:56.657Z,1.30
2018-08-16T07:47:25.089Z,1.00
2018-08-16T07:49:53.493Z,1.00
2018-08-16T07:52:21.929Z,1.10
2018-08-16T07:54:50.446Z,0.97
2018-08-16T07:57:18.840Z,1.10
2018-08-16T07:59:47.252Z,1.00
2018-08-16T08:02:15.779Z,1.20
2018-08-16T08:04:44.190Z,1.40
2018-08-16T08:07:12.681Z,1.33
2018-08-16T08:09:41.107Z,1.00
2018-08-16T08:12:09.690Z,1.10
2018-08-16T08:14:38.240Z,1.17
2018-08-16T08:17:06.758Z,1.10
2018-08-16T08:19:35.324Z,1.20
2018-08-16T08:22:03.905Z,1.00
2018-08-16T08:24:32.369Z,1.30
2018-08-16T08:27:02.051Z,1.00
2018-08-16T08:29:30.437Z,1.20
2018-08-16T08:31:58.858Z,1.20
2018-08-16T08:34:27.502Z,1.20
2018-08-16T08:37:07.224Z,1.40
2018-08-16T08:39:35.681Z,1.33
2018-08-16T08:42:04.144Z,1.13
2018-08-16T08:44:32.675Z,1.30
2018-08-16T08:47:01.046Z,1.20
2018-08-16T08:49:29.579Z,1.17
2018-08-16T08:51:58.194Z,1.47
2018-08-16T08:57:37.644Z,1.30
2018-08-16T09:00:06.548Z,1.00
2018-08-16T09:02:35.102Z,1.30
2018-08-16T09:05:04.173Z,1.40
2018-08-16T09:07:32.700Z,1.17
2018-08-16T09:11:15.418Z,1.10
2018-08-16T09:13:57.545Z,1.30
2018-08-16T09:16:27.945Z,1.33
2018-08-16T09:18:56.952Z,1.20
2018-08-16T09:21:25.745Z,1.27
2018-08-16T09:23:54.215Z,1.30
2018-08-16T09:26:28.457Z,1.40
2018-08-16T09:28:56.902Z,1.40
2018-08-16T09:31:36.683Z,1.20
2018-08-16T09:34:16.113Z,1.50
2018-08-16T09:36:44.713Z,1.10
2018-08-16T09:39:13.160Z,1.00
2018-08-16T09:41:41.594Z,1.30
2018-08-16T09:44:10.054Z,1.10
2018-08-16T09:46:53.406Z,1.17
2018-08-16T09:49:21.806Z,1.10
2018-08-16T09:51:50.298Z,1.00
2018-08-16T09:54:18.866Z,1.30
2018-08-16T09:56:47.757Z,1.00
2018-08-16T09:59:16.609Z,1.30
2018-08-16T10:01:45.286Z,1.30
2018-08-16T10:04:13.753Z,1.20
2018-08-16T10:06:43.018Z,1.17
2018-08-16T10:09:18.386Z,1.10
2018-08-16T10:11:47.205Z,1.30
2018-08-16T10:14:15.955Z,1.53
2018-08-16T10:16:44.394Z,1.00
2018-08-16T10:19:13.113Z,1.40
2018-08-16T10:21:41.709Z,1.13
2018-08-16T10:24:10.132Z,1.40
2018-08-16T10:26:38.767Z,1.27
2018-08-16T10:29:07.855Z,1.20
2018-08-16T10:31:36.377Z,1.20
2018-08-16T10:34:05.157Z,1.50
2018-08-16T10:36:33.765Z,1.27
2018-08-16T10:39:02.208Z,1.47
2018-08-16T10:41:31.042Z,1.37
2018-08-16T10:43:59.522Z,1.23
2018-08-16T10:46:28.398Z,1.23
2018-08-16T10:48:56.880Z,1.47
2018-08-16T10:51:25.281Z,1.07
2018-08-16T10:53:53.694Z,1.30
2018-08-16T10:56:22.177Z,1.40
2018-08-16T10:58:50.661Z,1.30
2018-08-16T11:01:19.156Z,1.10
2018-08-16T11:03:47.622Z,1.30
2018-08-16T11:06:16.060Z,1.27
2018-08-16T11:08:44.610Z,1.33
2018-08-16T11:11:13.105Z,1.30
2018-08-16T11:13:41.584Z,1.40
2018-08-16T11:16:09.967Z,1.33
2018-08-16T11:18:38.797Z,1.50
2018-08-16T11:21:07.202Z,1.33
2018-08-16T11:23:35.638Z,1.30
2018-08-16T11:26:04.161Z,1.33
2018-08-16T11:28:32.669Z,1.40
2018-08-16T11:31:01.645Z,1.50
2018-08-16T11:33:30.314Z,1.40
2018-08-16T11:35:58.748Z,1.40
2018-08-16T11:38:27.193Z,1.33
2018-08-16T11:40:55.616Z,1.10
2018-08-16T11:43:24.081Z,1.30
2018-08-16T11:45:52.530Z,1.50
2018-08-16T11:48:20.973Z,1.10
2018-08-16T11:50:49.426Z,1.37
2018-08-16T11:53:17.847Z,1.50
2018-08-16T11:55:46.515Z,1.20
2018-08-16T11:58:15.078Z,1.20
2018-08-16T12:00:43.552Z,1.13
2018-08-16T12:03:12.041Z,1.27
2018-08-16T12:05:40.511Z,1.20
2018-08-16T12:08:09.018Z,1.40
2018-08-16T12:10:37.513Z,1.50
2018-08-16T12:13:06.063Z,1.20
2018-08-16T12:15:34.548Z,1.23
2018-08-16T12:18:03.009Z,1.40
2018-08-16T12:20:31.481Z,1.40
2018-08-16T12:22:59.955Z,1.47
2018-08-16T12:25:28.506Z,1.30
2018-08-16T12:27:56.951Z,1.50
2018-08-16T12:30:25.469Z,1.20
2018-08-16T12:32:53.873Z,1.40
2018-08-16T12:35:22.357Z,1.60
2018-08-16T12:37:50.873Z,1.40
2018-08-16T12:40:19.722Z,1.30
2018-08-16T12:42:48.212Z,1.50
2018-08-16T12:45:16.705Z,1.10
2018-08-16T12:47:45.128Z,1.30
2018-08-16T12:50:13.550Z,1.43
2018-08-16T12:52:42.086Z,1.10
2018-08-16T12:55:10.581Z,1.47
2018-08-16T12:57:39.251Z,1.37
2018-08-16T13:00:12.705Z,1.40
2018-08-16T13:02:41.176Z,1.30
2018-08-16T13:05:09.621Z,1.13
2018-08-16T13:07:38.626Z,1.30
2018-08-16T13:10:08.404Z,1.30
2018-08-16T13:12:37.994Z,1.10
2018-08-16T13:15:07.913Z,1.33
2018-08-16T13:17:37.169Z,1.37
2018-08-16T13:20:08.247Z,1.30
2018-08-16T13:22:38.760Z,1.40
2018-08-16T13:25:10.357Z,1.27
2018-08-16T13:27:40.686Z,1.30
2018-08-16T13:30:12.869Z,1.30
2018-08-16T13:32:44.119Z,1.40
2018-08-16T13:35:14.013Z,1.33
2018-08-16T13:37:43.257Z,1.27
2018-08-16T13:40:11.802Z,1.50
2018-08-16T13:42:40.470Z,1.20
2018-08-16T13:45:09.171Z,1.33
2018-08-16T13:47:38.011Z,1.53
2018-08-16T13:50:06.541Z,1.13
2018-08-16T13:52:34.997Z,1.40
2018-08-16T13:55:03.497Z,1.40
2018-08-16T13:57:32.137Z,1.40
2018-08-16T14:00:01.169Z,1.10
2018-08-16T14:02:29.814Z,1.27
2018-08-16T14:04:58.326Z,1.50
2018-08-16T14:07:33.895Z,1.43
2018-08-16T14:10:05.174Z,1.47
2018-08-16T14:12:35.678Z,1.50
2018-08-16T14:15:05.132Z,1.50
2018-08-16T14:17:33.717Z,1.50
2018-08-16T14:20:02.278Z,1.50
2018-08-16T14:22:32.186Z,1.57
2018-08-16T14:25:02.271Z,1.50
2018-08-16T14:27:31.814Z,1.63
2018-08-16T14:30:00.271Z,1.43
2018-08-16T14:32:28.784Z,1.30
2018-08-16T14:34:57.270Z,1.60
2018-08-16T14:37:25.757Z,1.50
2018-08-16T14:39:54.454Z,1.40
2018-08-16T14:42:23.119Z,1.50
2018-08-16T14:44:52.130Z,1.50
2018-08-16T14:47:21.419Z,1.43
2018-08-16T14:49:49.864Z,1.50
2018-08-16T14:52:18.374Z,1.47
2018-08-16T14:54:48.389Z,1.40
2018-08-16T14:57:17.010Z,1.60
2018-08-16T14:59:45.466Z,1.60
2018-08-16T15:02:13.895Z,1.40
2018-08-16T15:04:42.585Z,1.70
2018-08-16T15:07:13.885Z,1.40
2018-08-16T15:09:44.093Z,1.50
2018-08-16T15:12:16.598Z,1.50
2018-08-16T15:14:45.476Z,1.40
2018-08-16T15:17:13.930Z,1.50
2018-08-16T15:19:42.797Z,1.43
2018-08-16T15:22:11.372Z,1.50
2018-08-16T15:24:40.106Z,1.53
2018-08-16T15:27:08.633Z,1.30
2018-08-16T15:29:38.408Z,1.50
2018-08-16T15:32:07.278Z,1.40
2018-08-16T15:34:35.762Z,1.60
2018-08-16T15:37:04.482Z,1.50
2018-08-16T15:39:35.418Z,1.50
2018-08-16T15:42:03.973Z,1.80
2018-08-16T15:44:33.525Z,1.53
2018-08-16T15:47:03.563Z,1.40
2018-08-16T15:49:32.184Z,1.50
2018-08-16T15:52:00.896Z,1.57
2018-08-16T15:54:29.922Z,1.50
2018-08-16T15:57:01.562Z,1.20
2018-08-16T15:59:31.761Z,1.40
2018-08-16T16:02:02.056Z,1.63
2018-08-16T16:04:32.793Z,1.70
2018-08-16T16:07:02.388Z,1.50
2018-08-16T16:09:33.633Z,1.40
2018-08-16T16:12:02.367Z,1.80
2018-08-16T16:14:32.308Z,1.50
2018-08-16T16:17:01.038Z,1.50
2018-08-16T16:19:29.839Z,1.57
2018-08-16T16:21:58.437Z,1.77
2018-08-16T16:24:27.420Z,1.60
2018-08-16T16:26:56.345Z,1.53
2018-08-16T16:29:24.917Z,1.60
2018-08-16T16:31:53.568Z,1.80
2018-08-16T16:34:22.271Z,1.30
2018-08-16T16:36:51.573Z,1.47
2018-08-16T16:39:20.905Z,1.43
2018-08-16T16:41:49.665Z,1.50
2018-08-16T16:44:18.370Z,1.73
2018-08-16T16:46:48.734Z,1.60
2018-08-16T16:49:22.982Z,1.30
2018-08-16T16:51:56.410Z,1.73
2018-08-16T16:54:25.227Z,1.47
2018-08-16T16:57:00.163Z,1.60
2018-08-16T16:59:28.947Z,1.63
2018-08-16T17:01:57.527Z,1.70
2018-08-16T17:04:28.103Z,1.50
2018-08-16T17:06:56.914Z,1.40
2018-08-16T17:14:16.060Z,1.72
2018-08-16T17:16:47.321Z,1.50
2018-08-16T17:19:18.535Z,2.00
2018-08-16T17:21:48.470Z,1.40
2018-08-16T17:24:19.380Z,1.43
2018-08-16T17:26:49.989Z,1.80
2018-08-16T17:29:21.811Z,1.77
2018-08-16T17:31:51.574Z,1.43
2018-08-16T17:34:22.421Z,1.20
2018-08-16T17:36:53.668Z,1.50
2018-08-16T17:39:23.982Z,1.70
2018-08-16T17:41:55.210Z,1.57
2018-08-16T17:44:24.297Z,1.60
2018-08-16T17:46:54.413Z,1.60
2018-08-16T17:49:23.023Z,1.70
2018-08-16T17:51:51.880Z,1.73
2018-08-16T17:54:20.843Z,1.70
2018-08-16T17:56:52.363Z,1.67
2018-08-16T17:59:22.130Z,1.47
2018-08-16T18:01:50.672Z,1.40
2018-08-16T18:04:19.190Z,1.53
2018-08-16T18:06:48.765Z,1.60
2018-08-16T18:09:19.598Z,1.60
2018-08-16T18:11:48.248Z,1.60
2018-08-16T18:14:16.869Z,1.43
2018-08-16T18:16:45.389Z,1.50
2018-08-16T18:19:13.893Z,1.50
2018-08-16T18:21:42.697Z,1.60
2018-08-16T18:24:11.369Z,1.50
2018-08-16T18:26:39.992Z,1.70
2018-08-16T18:29:08.597Z,1.37
2018-08-16T18:31:37.261Z,1.57
2018-08-16T18:34:06.441Z,1.40
2018-08-16T18:36:34.950Z,1.43
2018-08-16T18:39:03.958Z,1.70
2018-08-16T18:41:32.616Z,1.60
2018-08-16T18:44:01.080Z,1.50
2018-08-16T18:46:29.598Z,1.70
2018-08-16T18:48:58.202Z,1.47
2018-08-16T18:51:27.437Z,1.67
2018-08-16T18:53:56.001Z,1.50
2018-08-16T18:56:24.645Z,1.40
2018-08-16T18:58:53.085Z,1.53
2018-08-16T19:01:21.754Z,1.40
2018-08-16T19:03:50.166Z,1.57
2018-08-16T19:06:18.593Z,1.60
2018-08-16T19:08:47.310Z,1.70
2018-08-16T19:11:15.801Z,1.60
2018-08-16T19:13:44.243Z,1.60
2018-08-16T19:16:12.672Z,1.50
2018-08-16T19:18:41.105Z,1.70
2018-08-16T19:21:09.571Z,1.40
2018-08-16T19:23:38.961Z,1.53
2018-08-16T19:26:07.422Z,1.47
2018-08-16T19:28:35.936Z,1.50
2018-08-16T19:31:04.495Z,1.63
2018-08-16T19:33:33.217Z,1.30
2018-08-16T19:36:01.737Z,1.60
2018-08-16T19:38:30.375Z,1.80
2018-08-16T19:40:58.841Z,1.30
2018-08-16T19:43:27.278Z,1.60
2018-08-16T19:45:55.819Z,1.63
2018-08-16T19:48:24.318Z,1.50
2018-08-16T19:50:52.763Z,1.47
2018-08-16T19:53:21.146Z,1.70
2018-08-16T19:55:49.655Z,1.50
2018-08-16T19:58:18.344Z,1.80
2018-08-16T20:00:46.794Z,1.43
2018-08-16T20:03:15.368Z,1.50
2018-08-16T20:05:44.044Z,1.60
2018-08-16T20:08:13.226Z,1.63
2018-08-16T20:10:41.984Z,1.50
2018-08-16T20:13:10.481Z,1.67
2018-08-16T20:15:39.087Z,1.57
2018-08-16T20:18:07.689Z,1.60
2018-08-16T20:20:36.121Z,1.60
2018-08-16T20:23:04.611Z,1.50
2018-08-16T20:25:33.184Z,1.47
2018-08-16T20:28:01.609Z,1.67
2018-08-16T20:30:30.141Z,1.60
2018-08-16T20:32:58.562Z,1.47
2018-08-16T20:35:27.110Z,1.33
2018-08-16T20:37:56.020Z,1.90
2018-08-16T20:40:24.905Z,1.40
2018-08-16T20:42:53.345Z,1.60
2018-08-16T20:45:21.814Z,1.30
2018-08-16T20:47:50.343Z,1.30
2018-08-16T20:50:18.769Z,1.57
2018-08-16T20:52:47.389Z,1.50
2018-08-16T20:55:15.948Z,1.40
2018-08-16T20:57:44.623Z,1.70
2018-08-16T21:00:13.184Z,1.30
2018-08-16T21:02:41.816Z,1.53
2018-08-16T21:05:10.642Z,1.50
2018-08-16T21:07:39.313Z,1.40
2018-08-16T21:10:08.837Z,1.50
2018-08-16T21:12:37.372Z,1.50
2018-08-16T21:15:06.826Z,1.50
2018-08-16T21:17:36.328Z,1.73
2018-08-16T21:20:05.512Z,1.40
2018-08-16T21:22:34.169Z,1.60
2018-08-16T21:25:03.085Z,1.73
2018-08-16T21:27:31.571Z,1.40
2018-08-16T21:30:00.110Z,1.50
2018-08-16T21:32:29.156Z,1.80
2018-08-16T21:34:57.785Z,1.50
2018-08-16T21:37:26.256Z,1.53
2018-08-16T21:39:54.849Z,1.50
2018-08-16T21:42:23.289Z,1.40
2018-08-16T21:44:51.895Z,1.67
2018-08-16T21:47:20.298Z,1.40
2018-08-16T21:49:48.889Z,1.40
2018-08-16T21:52:17.636Z,1.50
2018-08-16T21:54:46.262Z,1.60
2018-08-16T21:57:14.745Z,1.57
2018-08-16T21:59:43.286Z,1.40
2018-08-16T22:02:11.813Z,1.50
2018-08-16T22:04:40.640Z,1.63
2018-08-16T22:07:12.312Z,1.37
2018-08-16T22:09:40.816Z,1.40
2018-08-16T22:12:09.944Z,1.10
2018-08-16T22:14:38.606Z,1.60
2018-08-16T22:17:09.212Z,1.70
2018-08-16T22:19:37.737Z,1.60
2018-08-16T22:22:06.302Z,1.60
2018-08-16T22:24:34.687Z,1.60
2018-08-16T22:27:04.785Z,1.30
2018-08-16T22:29:33.269Z,1.50
2018-08-16T22:32:03.694Z,1.37
2018-08-16T22:34:32.259Z,1.33
2018-08-16T22:37:04.014Z,1.50
2018-08-16T22:39:32.403Z,1.43
2018-08-16T22:42:00.921Z,1.50
2018-08-16T22:44:29.414Z,1.43
2018-08-16T22:46:58.480Z,1.23
2018-08-16T22:49:29.323Z,1.20
2018-08-16T22:51:58.868Z,1.40
2018-08-16T22:54:32.330Z,1.40
2018-08-16T22:57:01.068Z,1.70
2018-08-16T22:59:29.732Z,1.40
2018-08-16T23:01:58.264Z,1.60
2018-08-16T23:04:26.778Z,1.67
2018-08-16T23:06:55.294Z,1.30
2018-08-16T23:09:23.801Z,1.40
2018-08-16T23:11:52.262Z,1.40
2018-08-16T23:14:20.823Z,1.50
2018-08-16T23:16:49.571Z,1.30
2018-08-16T23:19:18.346Z,1.40
2018-08-16T23:21:46.983Z,1.30
2018-08-16T23:24:15.358Z,1.37
2018-08-16T23:26:43.761Z,1.40
2018-08-16T23:29:12.314Z,1.50
2018-08-16T23:31:40.976Z,1.20
2018-08-16T23:34:09.475Z,1.50
2018-08-16T23:36:38.744Z,1.50
2018-08-16T23:39:07.362Z,1.53
2018-08-16T23:41:36.041Z,1.50
2018-08-16T23:44:04.694Z,1.60
2018-08-16T23:46:33.297Z,1.50
2018-08-16T23:49:01.875Z,1.40
2018-08-16T23:51:30.456Z,1.60
2018-08-16T23:53:58.887Z,1.40
2018-08-16T23:56:27.521Z,1.20
2018-08-16T23:58:55.997Z,1.40
